Terminal Aerodrome Forecast
Issued by NWS Brownsville, TX

Home | Current Version | Previous Version | Text Only | Print | Product List | Glossary On
Versions: 1 2 3 4 5 6 7 8 9 10 11 12 13 14 15 16 17 18 19
461
FTUS44 KBRO 101134
TAFBRO
TAF
KBRO 101134Z 1012/1112 32009KT P6SM OVC035
      TEMPO 1015/1018 OVC018
     FM101800 34009KT P6SM OVC020
     FM102300 35007KT P6SM OVC015
     FM110300 VRB05KT P6SM SCT008 OVC015
      TEMPO 1106/1109 4SM BR
     FM110900 18005KT 5SM BR OVC008
      TEMPO 1109/1112 2SM BR=

USA.gov is the U.S. government's official web portal to all federal, state and local government web resources and services.